createdAt,value
2022-10-02T00:01:25.613Z,10.17
2022-10-02T00:03:52.630Z,8.70
2022-10-02T00:06:24.006Z,7.53
2022-10-02T00:08:55.031Z,13.93
2022-10-02T00:11:27.537Z,10.17
2022-10-02T00:13:56.874Z,14.70
2022-10-02T00:16:34.005Z,13.37
2022-10-02T00:19:00.840Z,9.70
2022-10-02T00:21:42.456Z,7.87
2022-10-02T00:24:14.002Z,8.53
2022-10-02T00:26:55.325Z,11.47
2022-10-02T00:29:33.483Z,10.83
2022-10-02T00:32:26.638Z,8.17
2022-10-02T00:34:57.565Z,8.93
2022-10-02T00:37:42.324Z,8.37
2022-10-02T00:40:37.879Z,6.77
2022-10-02T00:43:22.552Z,8.50
2022-10-02T00:46:13.893Z,11.17
2022-10-02T00:49:17.035Z,4.73
2022-10-02T00:52:02.947Z,8.63
2022-10-02T00:54:54.280Z,13.37
2022-10-02T00:57:35.640Z,12.17
2022-10-02T01:00:05.985Z,9.77
2022-10-02T01:02:44.782Z,7.33
2022-10-02T01:05:11.582Z,8.63
2022-10-02T01:07:41.900Z,8.83
2022-10-02T01:10:09.763Z,9.67
2022-10-02T01:12:38.007Z,12.23
2022-10-02T01:15:15.723Z,10.47
2022-10-02T01:17:42.595Z,13.47
2022-10-02T01:20:17.068Z,12.20
2022-10-02T01:23:06.715Z,9.43
2022-10-02T01:25:33.121Z,10.77
2022-10-02T01:27:59.548Z,6.87
2022-10-02T01:30:26.117Z,8.67
2022-10-02T01:32:55.281Z,7.90
2022-10-02T01:35:25.507Z,8.50
2022-10-02T01:37:52.488Z,12.37
2022-10-02T01:40:25.026Z,19.57
2022-10-02T01:42:51.499Z,19.83
2022-10-02T01:45:20.086Z,17.60
2022-10-02T01:47:55.983Z,15.63
2022-10-02T01:50:32.923Z,17.03
2022-10-02T01:53:28.817Z,12.37
2022-10-02T01:56:05.057Z,18.00
2022-10-02T01:58:54.170Z,15.63
2022-10-02T02:01:27.860Z,13.63
2022-10-02T02:04:12.956Z,15.67
2022-10-02T02:07:04.849Z,11.47
2022-10-02T02:09:35.149Z,18.73
2022-10-02T02:12:10.635Z,9.40
2022-10-02T02:14:46.482Z,18.87
2022-10-02T02:17:21.141Z,17.70
2022-10-02T02:19:55.075Z,10.70
2022-10-02T02:22:24.725Z,15.73
2022-10-02T02:25:27.232Z,12.27
2022-10-02T02:28:00.209Z,10.70
2022-10-02T02:30:27.363Z,12.53
2022-10-02T02:33:09.146Z,11.83
2022-10-02T02:35:39.307Z,11.00
2022-10-02T02:38:13.281Z,13.87
2022-10-02T02:40:42.366Z,11.77
2022-10-02T02:43:13.378Z,11.03
2022-10-02T02:45:46.611Z,18.97
2022-10-02T02:48:23.074Z,17.17
2022-10-02T02:51:02.838Z,14.80
2022-10-02T02:53:36.763Z,11.43
2022-10-02T02:56:04.749Z,11.10
2022-10-02T02:58:46.310Z,21.47
2022-10-02T03:01:13.027Z,17.33
2022-10-02T03:03:39.465Z,15.27
2022-10-02T03:06:21.757Z,17.90
2022-10-02T03:08:51.131Z,15.43
2022-10-02T03:11:23.140Z,24.80
2022-10-02T03:14:09.851Z,19.67
2022-10-02T03:16:49.537Z,20.73
2022-10-02T03:19:40.651Z,24.63
2022-10-02T03:22:25.854Z,16.17
2022-10-02T03:25:11.011Z,24.27
2022-10-02T03:27:42.797Z,22.43
2022-10-02T03:30:11.007Z,25.23
2022-10-02T03:32:38.692Z,22.37
2022-10-02T03:35:07.352Z,21.93
2022-10-02T03:37:33.960Z,18.83
2022-10-02T03:40:01.142Z,18.60
2022-10-02T03:42:30.885Z,21.63
2022-10-02T03:44:57.329Z,22.37
2022-10-02T03:47:23.748Z,30.83
2022-10-02T03:49:50.305Z,23.83
2022-10-02T03:52:18.848Z,20.50
2022-10-02T03:54:45.491Z,20.07
2022-10-02T03:57:17.940Z,24.57
2022-10-02T04:00:25.890Z,31.47
2022-10-02T04:02:55.731Z,23.50
2022-10-02T04:05:55.521Z,23.40
2022-10-02T04:08:27.797Z,22.73
2022-10-02T04:11:00.253Z,21.93
2022-10-02T04:13:40.282Z,21.97
2022-10-02T04:16:20.771Z,22.63
2022-10-02T04:19:15.199Z,20.23
2022-10-02T04:22:16.128Z,23.07
2022-10-02T04:24:52.938Z,26.53
2022-10-02T04:27:32.688Z,26.83
2022-10-02T04:30:03.707Z,20.63
2022-10-02T04:32:32.732Z,23.67
2022-10-02T04:34:59.787Z,24.60
2022-10-02T04:37:35.972Z,17.53
2022-10-02T04:40:11.448Z,15.67
2022-10-02T04:42:43.940Z,22.60
2022-10-02T04:45:20.927Z,20.53
2022-10-02T04:48:08.589Z,23.67
2022-10-02T04:50:43.277Z,17.57
2022-10-02T04:53:30.759Z,17.90
2022-10-02T04:56:08.109Z,20.80
2022-10-02T04:58:48.555Z,20.43
2022-10-02T05:01:52.797Z,18.83
2022-10-02T05:04:42.550Z,17.07
2022-10-02T05:07:30.537Z,25.57
2022-10-02T05:09:56.934Z,25.20
2022-10-02T05:12:26.217Z,20.10
2022-10-02T05:15:09.277Z,16.50
2022-10-02T05:17:41.548Z,20.47
2022-10-02T05:20:29.861Z,18.10
2022-10-02T05:23:20.527Z,13.67
2022-10-02T05:26:02.699Z,19.80
2022-10-02T05:28:44.653Z,18.27
2022-10-02T05:31:53.435Z,21.63
2022-10-02T05:34:48.680Z,17.43
2022-10-02T05:37:39.972Z,15.33
2022-10-02T05:40:28.448Z,12.13
2022-10-02T05:43:25.302Z,23.87
2022-10-02T05:46:06.403Z,18.93
2022-10-02T05:48:41.461Z,24.70
2022-10-02T05:51:12.905Z,15.47
2022-10-02T05:53:50.885Z,14.73
2022-10-02T05:56:22.807Z,17.10
2022-10-02T05:58:53.701Z,21.63
2022-10-02T06:01:26.533Z,13.93
2022-10-02T06:04:28.475Z,18.47
2022-10-02T06:06:56.939Z,15.13
2022-10-02T06:09:33.458Z,13.23
2022-10-02T06:12:23.701Z,18.40
2022-10-02T06:14:53.401Z,18.77
2022-10-02T06:17:24.387Z,16.80
2022-10-02T06:20:03.010Z,23.00
2022-10-02T06:22:35.583Z,18.60
2022-10-02T06:25:12.097Z,15.13
2022-10-02T06:27:47.542Z,14.50
2022-10-02T06:30:18.009Z,15.00
2022-10-02T06:33:04.660Z,15.93
2022-10-02T06:35:44.290Z,16.10
2022-10-02T06:38:24.535Z,10.10
2022-10-02T06:41:28.557Z,12.00
2022-10-02T06:44:01.017Z,15.33
2022-10-02T06:46:51.492Z,19.53
2022-10-02T06:49:58.872Z,13.67
2022-10-02T06:52:50.793Z,20.17
2022-10-02T06:55:50.613Z,22.00
2022-10-02T06:58:17.152Z,13.07
2022-10-02T07:00:50.059Z,14.40
2022-10-02T07:03:24.082Z,16.07
2022-10-02T07:06:05.602Z,15.20
2022-10-02T07:08:44.173Z,17.27
2022-10-02T07:11:25.988Z,17.33
2022-10-02T07:14:05.407Z,15.07
2022-10-02T07:17:06.608Z,13.37
2022-10-02T07:19:39.319Z,12.03
2022-10-02T07:22:43.514Z,11.40
2022-10-02T07:25:48.085Z,18.87
2022-10-02T07:28:31.180Z,12.57
2022-10-02T07:31:14.981Z,10.83
2022-10-02T07:34:13.070Z,14.40
2022-10-02T07:37:06.052Z,18.83
2022-10-02T07:39:58.702Z,11.17
2022-10-02T07:42:52.700Z,14.27
2022-10-02T07:45:30.151Z,20.53
2022-10-02T07:48:14.178Z,12.27
2022-10-02T07:50:49.045Z,13.20
2022-10-02T07:53:24.389Z,11.87
2022-10-02T07:55:55.227Z,13.00
2022-10-02T07:58:24.646Z,15.33
2022-10-02T08:00:54.459Z,16.80
2022-10-02T08:03:28.380Z,15.43
2022-10-02T08:05:56.219Z,22.03
2022-10-02T08:08:35.381Z,10.97
2022-10-02T08:11:06.830Z,14.10
2022-10-02T08:13:39.704Z,14.90
2022-10-02T08:16:06.920Z,19.97
2022-10-02T08:18:40.104Z,12.87
2022-10-02T08:21:17.355Z,9.93
2022-10-02T08:24:07.256Z,15.07
2022-10-02T08:26:53.830Z,18.43
2022-10-02T08:29:24.962Z,12.97
2022-10-02T08:31:52.980Z,12.13
2022-10-02T08:34:21.657Z,13.07
2022-10-02T08:37:29.593Z,11.93
2022-10-02T08:40:15.203Z,12.60
2022-10-02T08:43:08.543Z,10.90
2022-10-02T08:46:02.454Z,12.67
2022-10-02T08:48:55.028Z,15.63
2022-10-02T08:51:36.781Z,17.97
2022-10-02T08:54:25.277Z,10.73
2022-10-02T08:56:51.802Z,17.97
2022-10-02T08:59:38.103Z,12.00
2022-10-02T09:02:19.811Z,9.83
2022-10-02T09:05:04.215Z,15.70
2022-10-02T09:07:58.528Z,10.67
2022-10-02T09:11:09.996Z,12.10
2022-10-02T09:14:14.646Z,18.97
2022-10-02T09:17:02.195Z,10.20
2022-10-02T09:20:02.485Z,22.80
2022-10-02T09:22:50.274Z,18.60
2022-10-02T09:25:22.513Z,17.40
2022-10-02T09:28:23.026Z,17.60
2022-10-02T09:31:19.253Z,15.90
2022-10-02T09:34:04.206Z,13.27
2022-10-02T09:36:38.912Z,10.10
2022-10-02T09:39:17.704Z,16.73
2022-10-02T09:42:08.185Z,7.40
2022-10-02T09:45:13.805Z,9.87
2022-10-02T09:48:08.701Z,5.37
2022-10-02T09:50:56.235Z,10.70
2022-10-02T09:53:25.521Z,11.83
2022-10-02T09:56:16.400Z,6.27
2022-10-02T09:59:18.964Z,6.93
2022-10-02T10:01:50.022Z,7.10
2022-10-02T10:05:05.096Z,11.03
2022-10-02T10:07:51.575Z,5.57
2022-10-02T10:10:38.169Z,7.00
2022-10-02T10:13:36.825Z,7.77
2022-10-02T10:16:19.443Z,8.93
2022-10-02T10:19:19.917Z,9.90
2022-10-02T10:22:08.056Z,7.03
2022-10-02T10:25:10.157Z,13.93
2022-10-02T10:28:03.059Z,10.20
2022-10-02T10:31:02.698Z,6.80
2022-10-02T10:33:54.118Z,8.40
2022-10-02T10:37:13.765Z,5.57
2022-10-02T10:40:07.025Z,8.27
2022-10-02T10:42:56.129Z,6.67
2022-10-02T10:45:37.701Z,7.53
2022-10-02T10:48:47.110Z,7.07
2022-10-02T10:51:48.813Z,10.07
2022-10-02T10:54:48.412Z,8.43
2022-10-02T10:57:30.021Z,8.37
2022-10-02T11:00:16.476Z,9.17
2022-10-02T11:02:54.999Z,5.17
2022-10-02T11:05:37.517Z,13.40
2022-10-02T11:08:22.290Z,9.90
2022-10-02T11:11:16.854Z,13.93
2022-10-02T11:14:07.220Z,7.73
2022-10-02T11:16:55.278Z,9.50
2022-10-02T11:19:44.125Z,12.97
2022-10-02T11:22:19.911Z,14.30
2022-10-02T11:25:15.454Z,11.37
2022-10-02T11:27:48.134Z,11.50
2022-10-02T11:30:21.704Z,10.60
2022-10-02T11:33:22.261Z,17.53
2022-10-02T11:36:26.327Z,11.03
2022-10-02T11:38:52.863Z,5.37
2022-10-02T11:41:34.928Z,12.33
2022-10-02T11:44:40.647Z,8.73
2022-10-02T11:47:22.619Z,11.17
2022-10-02T11:50:57.028Z,8.87
2022-10-02T11:53:32.098Z,10.13
2022-10-02T11:56:22.269Z,10.03
2022-10-02T11:58:51.918Z,12.10
2022-10-02T12:01:55.869Z,8.73
2022-10-02T12:04:44.397Z,8.70
2022-10-02T12:07:19.225Z,13.43
2022-10-02T12:10:00.877Z,8.60
2022-10-02T12:12:40.084Z,9.00
2022-10-02T12:15:28.341Z,8.23
2022-10-02T12:18:23.211Z,11.67
2022-10-02T12:21:16.327Z,11.07
2022-10-02T12:24:26.318Z,15.53
2022-10-02T12:27:00.795Z,9.73
2022-10-02T12:29:33.311Z,11.00
2022-10-02T12:32:38.503Z,10.97
2022-10-02T12:35:27.722Z,14.77
2022-10-02T12:38:16.309Z,10.17
2022-10-02T12:41:07.937Z,11.37
2022-10-02T12:43:50.551Z,10.97
2022-10-02T12:46:17.148Z,6.50
2022-10-02T12:48:59.393Z,6.77
2022-10-02T12:51:35.514Z,8.43
2022-10-02T12:54:33.826Z,7.20
2022-10-02T12:57:39.290Z,8.17
2022-10-02T13:00:14.452Z,10.27
2022-10-02T13:03:32.120Z,7.23
2022-10-02T13:06:19.344Z,9.60
2022-10-02T13:08:48.320Z,6.13
2022-10-02T13:11:28.409Z,5.23
2022-10-02T13:14:20.375Z,10.33
2022-10-02T13:16:46.760Z,8.00
2022-10-02T13:19:38.034Z,14.07
2022-10-02T13:22:40.012Z,9.40
2022-10-02T13:25:27.563Z,12.83
2022-10-02T13:28:18.103Z,9.83
2022-10-02T13:31:11.901Z,11.77
2022-10-02T13:34:01.243Z,10.07
2022-10-02T13:37:01.427Z,7.43
2022-10-02T13:39:39.919Z,6.43
2022-10-02T13:42:18.698Z,8.97
2022-10-02T13:45:03.273Z,14.77
2022-10-02T13:47:32.822Z,14.40
2022-10-02T13:50:26.041Z,9.10
2022-10-02T13:53:18.756Z,14.30
2022-10-02T13:55:48.029Z,11.73
2022-10-02T13:58:35.888Z,9.63
2022-10-02T14:01:22.105Z,15.07
2022-10-02T14:03:58.483Z,25.70
2022-10-02T14:06:55.718Z,9.63
2022-10-02T14:09:33.662Z,16.77
2022-10-02T14:12:27.568Z,11.87
2022-10-02T14:15:06.824Z,13.80
2022-10-02T14:17:47.293Z,10.77
2022-10-02T14:20:19.014Z,11.30
2022-10-02T14:22:59.279Z,10.53
2022-10-02T14:25:32.399Z,15.30
2022-10-02T14:28:02.337Z,12.40
2022-10-02T14:30:39.593Z,12.33
2022-10-02T14:33:20.666Z,16.90
2022-10-02T14:36:33.998Z,15.10
2022-10-02T14:39:18.760Z,19.80
2022-10-02T14:42:00.119Z,9.90
2022-10-02T14:44:40.030Z,7.13
2022-10-02T14:47:30.802Z,12.63
2022-10-02T14:50:38.651Z,12.67
2022-10-02T14:53:32.284Z,13.80
2022-10-02T14:56:15.514Z,15.50
2022-10-02T14:59:00.818Z,15.43
2022-10-02T15:01:27.368Z,12.80
2022-10-02T15:04:29.335Z,17.37
2022-10-02T15:07:04.636Z,13.40
2022-10-02T15:10:00.537Z,18.77
2022-10-02T15:12:36.140Z,19.37
2022-10-02T15:15:14.112Z,13.57
2022-10-02T15:18:13.733Z,16.87
2022-10-02T15:20:49.098Z,13.93
2022-10-02T15:23:25.248Z,14.37
2022-10-02T15:26:01.258Z,19.87
2022-10-02T15:28:37.226Z,14.50
2022-10-02T15:31:31.452Z,15.10
2022-10-02T15:34:28.178Z,14.13
2022-10-02T15:37:18.109Z,13.83
2022-10-02T15:40:05.925Z,15.83
2022-10-02T15:43:21.147Z,13.97
2022-10-02T15:46:05.941Z,15.80
2022-10-02T15:48:57.280Z,18.10
2022-10-02T15:51:29.712Z,11.90
2022-10-02T15:54:16.859Z,13.10
2022-10-02T15:56:55.520Z,11.50
2022-10-02T15:59:40.694Z,11.73
2022-10-02T16:02:07.106Z,19.03
2022-10-02T16:04:44.043Z,13.20
2022-10-02T16:07:38.714Z,13.67
2022-10-02T16:10:24.371Z,16.93
2022-10-02T16:12:53.730Z,15.47
2022-10-02T16:15:23.582Z,11.77
2022-10-02T16:18:40.512Z,15.80
2022-10-02T16:21:09.632Z,11.03
2022-10-02T16:24:05.677Z,15.07
2022-10-02T16:27:13.011Z,12.93
2022-10-02T16:29:45.081Z,15.03
2022-10-02T16:32:31.341Z,13.47
2022-10-02T16:35:16.523Z,13.63
2022-10-02T16:37:53.925Z,15.27
2022-10-02T16:40:40.375Z,13.90
2022-10-02T16:43:47.223Z,15.70
2022-10-02T16:46:37.442Z,15.80
2022-10-02T16:49:22.204Z,12.33
2022-10-02T16:52:12.363Z,13.90
2022-10-02T16:55:06.156Z,10.23
2022-10-02T16:57:41.528Z,15.40
2022-10-02T17:00:25.164Z,17.33
2022-10-02T17:02:54.559Z,17.13
2022-10-02T17:05:37.018Z,13.70
2022-10-02T17:08:08.472Z,12.90
2022-10-02T17:10:46.955Z,14.07
2022-10-02T17:13:19.475Z,22.87
2022-10-02T17:15:48.940Z,16.47
2022-10-02T17:18:27.830Z,17.53
2022-10-02T17:20:59.386Z,15.10
2022-10-02T17:24:03.533Z,13.33
2022-10-02T17:26:36.885Z,11.37
2022-10-02T17:29:13.342Z,17.10
2022-10-02T17:32:01.467Z,13.10
2022-10-02T17:34:33.905Z,17.33
2022-10-02T17:37:09.562Z,19.40
2022-10-02T17:39:48.377Z,21.07
2022-10-02T17:42:43.325Z,16.00
2022-10-02T17:45:29.265Z,13.80
2022-10-02T17:48:08.314Z,16.20
2022-10-02T17:51:02.559Z,13.77
2022-10-02T17:53:47.781Z,12.03
2022-10-02T17:56:32.562Z,14.87
2022-10-02T17:59:12.266Z,11.67
2022-10-02T18:01:48.222Z,15.93
2022-10-02T18:04:29.627Z,12.63
2022-10-02T18:07:25.219Z,15.43
2022-10-02T18:09:53.910Z,19.70
2022-10-02T18:12:41.034Z,16.57
2022-10-02T18:15:32.297Z,11.23
2022-10-02T18:18:13.831Z,15.30
2022-10-02T18:21:00.623Z,17.80
2022-10-02T18:23:51.777Z,12.20
2022-10-02T18:26:42.974Z,15.50
2022-10-02T18:29:31.713Z,14.03
2022-10-02T18:32:41.111Z,20.97
2022-10-02T18:35:32.094Z,14.93
2022-10-02T18:38:04.758Z,14.93
2022-10-02T18:40:36.917Z,13.07
2022-10-02T18:43:27.687Z,16.47
2022-10-02T18:46:06.771Z,17.83
2022-10-02T18:48:48.824Z,14.83
2022-10-02T18:51:15.151Z,18.73
2022-10-02T18:53:58.518Z,13.93
2022-10-02T18:56:46.452Z,17.53
2022-10-02T18:59:36.991Z,15.73
2022-10-02T19:02:39.525Z,13.63
2022-10-02T19:05:26.046Z,15.07
2022-10-02T19:07:56.656Z,14.03
2022-10-02T19:10:29.305Z,17.40
2022-10-02T19:13:07.773Z,19.00
2022-10-02T19:15:34.717Z,17.90
2022-10-02T19:18:03.893Z,12.93
2022-10-02T19:20:35.226Z,18.43
2022-10-02T19:23:03.674Z,20.90
2022-10-02T19:25:30.448Z,16.97
2022-10-02T19:27:57.178Z,9.83
2022-10-02T19:30:29.600Z,20.10
2022-10-02T19:32:58.141Z,17.33
2022-10-02T19:35:32.569Z,16.60
2022-10-02T19:38:08.066Z,18.37
2022-10-02T19:40:36.162Z,12.57
2022-10-02T19:43:08.739Z,19.67
2022-10-02T19:45:36.174Z,16.23
2022-10-02T19:48:09.605Z,12.40
2022-10-02T19:50:51.086Z,17.53
2022-10-02T19:53:22.222Z,12.30
2022-10-02T19:55:59.756Z,19.27
2022-10-02T19:58:33.232Z,20.43
2022-10-02T20:01:00.299Z,14.80
2022-10-02T20:03:27.021Z,18.50
2022-10-02T20:06:02.133Z,19.53
2022-10-02T20:08:42.658Z,15.80
2022-10-02T20:11:14.827Z,19.53
2022-10-02T20:13:44.952Z,18.03
2022-10-02T20:16:40.745Z,16.10
2022-10-02T20:19:11.304Z,12.73
2022-10-02T20:21:42.042Z,19.23
2022-10-02T20:24:15.581Z,14.63
2022-10-02T20:26:43.750Z,13.20
2022-10-02T20:29:23.708Z,19.03
2022-10-02T20:31:55.378Z,24.17
2022-10-02T20:34:27.340Z,18.80
2022-10-02T20:37:05.295Z,20.97
2022-10-02T20:39:36.428Z,17.47
2022-10-02T20:42:10.391Z,16.03
2022-10-02T20:44:37.531Z,20.47
2022-10-02T20:47:25.358Z,18.27
2022-10-02T20:50:12.392Z,19.17
2022-10-02T20:53:02.087Z,25.17
2022-10-02T20:55:50.919Z,20.17
2022-10-02T20:58:32.567Z,17.63
2022-10-02T21:01:18.955Z,18.43
2022-10-02T21:04:13.590Z,26.20
2022-10-02T21:06:44.461Z,26.90
2022-10-02T21:09:44.746Z,20.90
2022-10-02T21:12:20.193Z,15.33
2022-10-02T21:15:23.873Z,19.10
2022-10-02T21:18:14.145Z,27.00
2022-10-02T21:21:08.701Z,17.90
2022-10-02T21:23:52.152Z,16.27
2022-10-02T21:26:36.055Z,21.07
2022-10-02T21:29:17.801Z,25.80
2022-10-02T21:32:14.645Z,25.33
2022-10-02T21:35:10.468Z,22.13
2022-10-02T21:38:04.012Z,18.57
2022-10-02T21:40:58.012Z,18.60
2022-10-02T21:43:45.744Z,20.40
2022-10-02T21:46:41.333Z,21.07
2022-10-02T21:49:22.845Z,22.93
2022-10-02T21:52:16.556Z,15.50
2022-10-02T21:55:02.284Z,19.83
2022-10-02T21:58:06.282Z,18.63
2022-10-02T22:00:44.816Z,16.73
2022-10-02T22:03:42.231Z,21.57
2022-10-02T22:06:20.072Z,18.60
2022-10-02T22:08:58.882Z,19.00
2022-10-02T22:11:50.004Z,18.47
2022-10-02T22:14:23.377Z,18.43
2022-10-02T22:17:16.165Z,17.63
2022-10-02T22:19:47.255Z,23.97
2022-10-02T22:22:25.817Z,18.40
2022-10-02T22:25:12.303Z,15.70
2022-10-02T22:27:38.909Z,17.63
2022-10-02T22:30:05.830Z,24.77
2022-10-02T22:32:59.990Z,17.67
2022-10-02T22:35:45.554Z,20.83
2022-10-02T22:38:34.362Z,26.30
2022-10-02T22:41:16.312Z,22.77
2022-10-02T22:44:05.478Z,17.73
2022-10-02T22:46:47.469Z,18.17
2022-10-02T22:49:31.968Z,19.00
2022-10-02T22:52:30.709Z,16.70
2022-10-02T22:55:09.433Z,19.07
2022-10-02T22:57:39.705Z,21.43
2022-10-02T23:00:41.255Z,17.60
2022-10-02T23:03:16.036Z,23.93
2022-10-02T23:05:46.638Z,20.80
2022-10-02T23:08:31.893Z,15.93
2022-10-02T23:11:02.808Z,16.13
2022-10-02T23:13:37.113Z,21.13
2022-10-02T23:16:12.501Z,24.27
2022-10-02T23:18:43.121Z,16.47
2022-10-02T23:21:26.556Z,16.57
2022-10-02T23:24:15.575Z,15.83
2022-10-02T23:26:53.215Z,14.33
2022-10-02T23:29:28.622Z,18.63
2022-10-02T23:32:05.487Z,16.33
2022-10-02T23:34:40.071Z,19.53
2022-10-02T23:37:24.024Z,17.93
2022-10-02T23:39:58.457Z,18.87
2022-10-02T23:42:39.413Z,17.80
2022-10-02T23:45:37.314Z,22.63
2022-10-02T23:48:05.949Z,19.50
2022-10-02T23:50:54.114Z,17.33
2022-10-02T23:53:49.264Z,19.40
2022-10-02T23:56:36.631Z,18.03
2022-10-02T23:59:12.662Z,21.00
